createdAt,value
2018-05-03T00:00:19.196Z,15.60
2018-05-03T00:05:21.987Z,15.60
2018-05-03T00:10:24.719Z,15.40
2018-05-03T00:15:31.127Z,14.90
2018-05-03T00:20:33.921Z,15.00
2018-05-03T00:25:37.702Z,14.90
2018-05-03T00:30:41.120Z,14.90
2018-05-03T00:35:49.424Z,14.90
2018-05-03T00:40:52.116Z,14.80
2018-05-03T00:45:56.088Z,14.90
2018-05-03T00:50:59.642Z,14.80
2018-05-03T00:56:06.401Z,14.80
2018-05-03T01:01:09.211Z,14.80
2018-05-03T01:06:13.202Z,14.70
2018-05-03T01:11:16.960Z,14.90
2018-05-03T01:16:20.479Z,14.90
2018-05-03T01:21:24.391Z,15.10
2018-05-03T01:26:27.429Z,15.10
2018-05-03T01:31:30.079Z,15.10
2018-05-03T01:36:32.688Z,15.30
2018-05-03T01:41:36.442Z,15.00
2018-05-03T01:46:39.084Z,14.90
2018-05-03T01:51:42.648Z,15.00
2018-05-03T01:56:46.321Z,14.80
2018-05-03T02:01:48.930Z,14.80
2018-05-03T02:06:53.561Z,14.80
2018-05-03T02:11:56.589Z,14.80
2018-05-03T02:16:59.452Z,14.90
2018-05-03T02:22:04.868Z,15.10
2018-05-03T02:27:08.217Z,15.10
2018-05-03T02:32:11.101Z,15.30
2018-05-03T02:37:15.059Z,15.30
2018-05-03T02:42:18.094Z,15.40
2018-05-03T02:47:20.849Z,15.30
2018-05-03T02:52:24.123Z,15.20
2018-05-03T02:57:39.606Z,15.30
2018-05-03T03:03:01.196Z,15.30
2018-05-03T03:14:32.751Z,15.30
2018-05-03T03:19:52.322Z,15.20
2018-05-03T03:25:06.918Z,15.20
2018-05-03T03:36:10.805Z,15.10
2018-05-03T03:41:27.996Z,15.10
2018-05-03T03:46:33.303Z,15.00
2018-05-03T03:51:38.621Z,15.00
2018-05-03T03:56:42.546Z,14.90
2018-05-03T04:01:52.003Z,14.90
2018-05-03T04:06:55.198Z,14.90
2018-05-03T04:11:57.797Z,14.90
2018-05-03T04:17:03.131Z,14.90
2018-05-03T04:22:18.625Z,15.00
2018-05-03T04:27:21.743Z,15.00
2018-05-03T04:32:24.645Z,14.90
2018-05-03T04:37:27.392Z,14.90
2018-05-03T04:42:30.152Z,14.80
2018-05-03T04:47:33.540Z,14.80
2018-05-03T04:52:36.371Z,14.80
2018-05-03T04:57:39.173Z,14.90
2018-05-03T05:02:42.809Z,15.10
2018-05-03T05:07:45.561Z,15.10
2018-05-03T05:12:48.431Z,15.00
2018-05-03T05:17:51.114Z,15.10
2018-05-03T05:22:53.878Z,15.00
2018-05-03T05:27:56.608Z,15.00
2018-05-03T05:33:00.334Z,15.10
2018-05-03T05:38:05.622Z,15.10
2018-05-03T05:43:09.096Z,15.10
2018-05-03T05:48:15.003Z,15.20
2018-05-03T05:53:17.706Z,15.10
2018-05-03T05:58:20.492Z,15.20
2018-05-03T06:03:23.236Z,15.30
2018-05-03T06:08:26.952Z,15.30
2018-05-03T06:13:29.725Z,15.30
2018-05-03T06:18:32.729Z,15.20
2018-05-03T06:23:36.146Z,15.20
2018-05-03T06:28:39.564Z,15.10
2018-05-03T06:33:44.840Z,15.10
2018-05-03T06:38:50.462Z,15.20
2018-05-03T06:43:55.039Z,15.20
2018-05-03T06:48:59.341Z,15.20
2018-05-03T06:54:03.241Z,15.20
2018-05-03T06:59:06.123Z,15.20
2018-05-03T07:04:10.124Z,15.20
2018-05-03T07:09:12.732Z,15.30
2018-05-03T07:14:15.434Z,15.30
2018-05-03T07:19:20.499Z,15.30
2018-05-03T07:24:26.734Z,15.30
2018-05-03T07:29:30.805Z,15.40
2018-05-03T07:34:34.030Z,15.50
2018-05-03T07:39:37.585Z,15.60
2018-05-03T07:44:41.891Z,15.60
2018-05-03T07:49:44.539Z,15.70
2018-05-03T07:54:52.286Z,15.80
2018-05-03T07:59:54.882Z,15.80
2018-05-03T08:04:58.281Z,15.70
2018-05-03T08:10:00.863Z,15.70
2018-05-03T08:15:04.485Z,15.70
2018-05-03T08:20:07.068Z,15.80
2018-05-03T08:25:11.081Z,15.80
2018-05-03T08:30:14.460Z,16.20
2018-05-03T08:35:17.510Z,16.20
2018-05-03T08:40:20.304Z,16.20
2018-05-03T08:45:30.376Z,16.50
2018-05-03T08:50:37.630Z,16.50
2018-05-03T08:55:40.900Z,16.70
2018-05-03T09:00:43.697Z,16.80
2018-05-03T09:05:46.377Z,16.90
2018-05-03T09:10:49.379Z,17.00
2018-05-03T09:15:53.475Z,17.20
2018-05-03T09:20:56.539Z,17.20
2018-05-03T09:25:59.256Z,17.30
2018-05-03T09:31:02.694Z,17.50
2018-05-03T09:36:05.474Z,17.40
2018-05-03T09:41:08.964Z,17.70
2018-05-03T09:46:12.212Z,17.90
2018-05-03T09:56:44.660Z,18.30
2018-05-03T10:01:47.327Z,18.00
2018-05-03T10:06:50.720Z,19.00
2018-05-03T10:11:53.471Z,19.00
2018-05-03T10:16:56.386Z,19.60
2018-05-03T10:21:59.171Z,20.00
2018-05-03T10:27:02.673Z,20.10
2018-05-03T10:32:06.309Z,20.50
2018-05-03T10:37:13.001Z,20.70
2018-05-03T10:42:16.339Z,20.70
2018-05-03T10:47:19.624Z,21.00
2018-05-03T10:52:22.314Z,21.20
2018-05-03T10:57:25.812Z,22.00
2018-05-03T11:02:28.866Z,22.00
2018-05-03T11:07:31.532Z,21.70
2018-05-03T11:12:34.675Z,21.70
2018-05-03T11:17:38.402Z,21.60
2018-05-03T11:22:41.928Z,21.80
2018-05-03T11:27:44.635Z,21.50
2018-05-03T11:32:48.098Z,21.30
2018-05-03T11:37:52.009Z,21.20
2018-05-03T11:42:54.627Z,21.40
2018-05-03T11:47:57.372Z,21.30
2018-05-03T11:53:00.893Z,21.40
2018-05-03T11:58:05.145Z,21.40
2018-05-03T12:03:08.139Z,21.40
2018-05-03T12:08:13.435Z,21.40
2018-05-03T12:13:16.029Z,21.30
2018-05-03T12:18:18.633Z,21.40
2018-05-03T12:23:21.282Z,21.50
2018-05-03T12:28:24.472Z,21.50
2018-05-03T12:33:27.035Z,21.70
2018-05-03T12:38:30.763Z,21.80
2018-05-03T12:43:33.357Z,21.60
2018-05-03T12:48:35.935Z,21.40
2018-05-03T12:53:38.539Z,21.50
2018-05-03T12:58:41.111Z,21.80
2018-05-03T13:03:44.892Z,22.40
2018-05-03T13:08:54.013Z,22.30
2018-05-03T13:13:56.584Z,22.30
2018-05-03T13:18:59.169Z,21.90
2018-05-03T13:24:01.887Z,21.90
2018-05-03T13:29:05.309Z,21.80
2018-05-03T13:34:09.236Z,22.10
2018-05-03T13:39:13.356Z,22.10
2018-05-03T13:44:17.001Z,22.20
2018-05-03T13:49:19.636Z,22.20
2018-05-03T13:54:22.244Z,22.20
2018-05-03T13:59:25.103Z,22.30
2018-05-03T14:04:29.191Z,22.30
2018-05-03T14:09:32.919Z,22.70
2018-05-03T14:14:35.970Z,22.70
2018-05-03T14:19:38.681Z,22.90
2018-05-03T14:24:43.316Z,22.90
2018-05-03T14:29:47.528Z,22.80
2018-05-03T14:34:52.333Z,22.70
2018-05-03T14:39:55.289Z,22.70
2018-05-03T14:44:59.601Z,22.90
2018-05-03T14:50:03.289Z,22.90
2018-05-03T14:55:06.925Z,22.90
2018-05-03T15:00:11.441Z,22.70
2018-05-03T15:05:16.176Z,22.60
2018-05-03T15:10:19.845Z,22.10
2018-05-03T15:15:30.312Z,22.10
2018-05-03T15:20:33.501Z,21.90
2018-05-03T15:25:38.152Z,21.70
2018-05-03T15:30:41.571Z,21.70
2018-05-03T15:35:44.371Z,21.60
2018-05-03T15:40:47.057Z,21.40
2018-05-03T15:45:49.732Z,21.30
2018-05-03T15:50:52.326Z,21.40
2018-05-03T15:55:54.896Z,21.40
2018-05-03T16:00:57.558Z,21.30
2018-05-03T16:06:01.072Z,21.10
2018-05-03T16:11:05.146Z,21.20
2018-05-03T16:16:07.924Z,21.20
2018-05-03T16:21:11.259Z,21.30
2018-05-03T16:26:17.423Z,21.40
2018-05-03T16:31:20.328Z,21.30
2018-05-03T16:36:25.634Z,21.20
2018-05-03T16:41:28.884Z,20.90
2018-05-03T16:46:32.948Z,20.90
2018-05-03T16:51:35.644Z,20.90
2018-05-03T16:56:38.350Z,20.90
2018-05-03T17:01:47.795Z,20.70
2018-05-03T17:06:51.790Z,20.20
2018-05-03T17:11:54.647Z,20.20
2018-05-03T17:16:58.058Z,20.00
2018-05-03T17:22:01.973Z,19.70
2018-05-03T17:27:06.009Z,19.70
2018-05-03T17:32:10.237Z,19.80
2018-05-03T17:37:13.872Z,19.60
2018-05-03T17:42:17.391Z,19.60
2018-05-03T17:47:24.093Z,19.60
2018-05-03T17:52:28.275Z,19.60
2018-05-03T17:57:31.117Z,19.50
2018-05-03T18:02:34.746Z,19.50
2018-05-03T18:07:37.447Z,19.40
2018-05-03T18:12:41.378Z,19.50
2018-05-03T18:17:45.420Z,19.50
2018-05-03T18:22:49.133Z,19.40
2018-05-03T18:27:52.659Z,19.30
2018-05-03T18:32:56.665Z,19.30
2018-05-03T18:38:00.793Z,19.40
2018-05-03T18:43:04.608Z,19.40
2018-05-03T18:48:09.968Z,19.40
2018-05-03T18:53:13.522Z,19.40
2018-05-03T18:58:16.338Z,19.30
2018-05-03T19:03:19.576Z,19.30
2018-05-03T19:08:24.698Z,19.30
2018-05-03T19:13:28.183Z,19.20
2018-05-03T19:18:31.707Z,19.20
2018-05-03T19:23:37.871Z,19.20
2018-05-03T19:28:41.653Z,19.10
2018-05-03T19:33:45.321Z,19.10
2018-05-03T19:38:48.906Z,19.10
2018-05-03T19:43:54.342Z,19.00
2018-05-03T19:48:59.742Z,19.00
2018-05-03T19:54:02.742Z,18.90
2018-05-03T19:59:05.743Z,18.90
2018-05-03T20:04:09.160Z,18.80
2018-05-03T20:09:15.365Z,18.80
2018-05-03T20:14:19.067Z,18.80
2018-05-03T20:19:22.500Z,18.70
2018-05-03T20:24:27.052Z,18.70
2018-05-03T20:29:31.122Z,18.70
2018-05-03T20:34:33.966Z,18.60
2018-05-03T20:39:37.075Z,18.50
2018-05-03T20:44:41.624Z,18.20
2018-05-03T20:49:44.227Z,18.20
2018-05-03T20:54:46.821Z,18.20
2018-05-03T20:59:50.800Z,18.10
2018-05-03T21:04:53.511Z,18.10
2018-05-03T21:09:56.069Z,18.30
2018-05-03T21:14:59.919Z,18.40
2018-05-03T21:20:02.495Z,18.50
2018-05-03T21:25:11.711Z,18.50
2018-05-03T21:30:14.256Z,18.50
2018-05-03T21:35:17.855Z,18.50
2018-05-03T21:40:22.380Z,18.50
2018-05-03T21:45:25.515Z,18.50
2018-05-03T21:50:28.643Z,18.50
2018-05-03T21:55:32.402Z,18.40
2018-05-03T22:00:35.608Z,18.50
2018-05-03T22:05:38.752Z,18.50
2018-05-03T22:10:43.887Z,18.30
2018-05-03T22:15:46.450Z,18.30
2018-05-03T22:20:49.015Z,18.20
2018-05-03T22:25:52.885Z,18.40
2018-05-03T22:30:57.110Z,18.40
2018-05-03T22:35:59.688Z,18.30
2018-05-03T22:41:03.056Z,18.50
2018-05-03T22:46:05.645Z,18.50
2018-05-03T22:51:08.247Z,18.40
2018-05-03T22:56:11.174Z,18.40
2018-05-03T23:01:13.771Z,18.40
2018-05-03T23:06:17.580Z,17.90
2018-05-03T23:11:20.921Z,17.90
2018-05-03T23:16:23.479Z,17.80
2018-05-03T23:21:32.682Z,17.70
2018-05-03T23:26:36.010Z,17.60
2018-05-03T23:31:39.756Z,17.50
2018-05-03T23:36:42.762Z,17.60
2018-05-03T23:41:46.280Z,17.50
2018-05-03T23:46:49.466Z,17.60
2018-05-03T23:51:53.352Z,17.60
2018-05-03T23:56:55.929Z,17.60
